Time;durP1;ratioP1;P1;durP2;ratioP2;P2;SDS_P1;SDS_P2;PMS_P1;PMS_P2;Temp;Humidity;BMP_temperature;BMP_pressure;BME280_temperature;BME280_humidity;BME280_pressure;Samples;Min_cycle;Max_cycle;Signal;HPM_P1;HPM_P2
2023/11/12 08:47:55;;;;;;;0.80;0.60;;;;;;;9.82;100.00;98271.58;105915;1283;612656;-70
2023/11/12 08:50:23;;;;;;;0.60;0.50;;;;;;;10.00;100.00;98269.46;107351;1264;180144;-67
2023/11/12 08:52:50;;;;;;;1.10;0.70;;;;;;;9.94;100.00;98264.46;107503;1268;59482;-69
2023/11/12 08:55:19;;;;;;;1.10;0.60;;;;;;;9.91;100.00;98263.45;107530;1263;72341;-69
2023/11/12 08:57:47;;;;;;;1.50;0.90;;;;;;;9.85;100.00;98261.29;107470;1267;72469;-68
2023/11/12 09:00:15;;;;;;;1.90;1.00;;;;;;;9.82;100.00;98261.90;107466;1265;71522;-69
2023/11/12 09:02:44;;;;;;;1.90;0.70;;;;;;;9.82;100.00;98267.14;107481;1267;60815;-69
2023/11/12 09:05:12;;;;;;;0.90;0.70;;;;;;;9.82;100.00;98272.16;107459;1264;60105;-69
2023/11/12 09:07:40;;;;;;;1.20;0.70;;;;;;;9.79;100.00;98274.37;107498;1264;71246;-69
2023/11/12 09:10:08;;;;;;;0.80;0.70;;;;;;;9.75;100.00;98274.70;107490;1267;73116;-69
2023/11/12 09:12:35;;;;;;;0.60;0.60;;;;;;;9.71;100.00;98277.67;107401;1267;72696;-70
2023/11/12 09:15:04;;;;;;;1.20;0.60;;;;;;;9.69;100.00;98284.17;107480;1264;61739;-69
2023/11/12 09:17:32;;;;;;;0.60;0.60;;;;;;;9.64;100.00;98284.30;107482;1264;59371;-68
2023/11/12 09:19:59;;;;;;;1.50;0.70;;;;;;;9.59;100.00;98283.15;107527;1264;71782;-68
2023/11/12 09:22:27;;;;;;;2.10;0.70;;;;;;;9.58;100.00;98284.40;107535;1264;71608;-70
2023/11/12 09:24:54;;;;;;;1.20;0.70;;;;;;;9.58;100.00;98286.31;107628;1263;72725;-71
2023/11/12 09:27:37;;;;;;;0.90;0.60;;;;;;;9.59;100.00;98287.73;107563;1262;60392;-69
2023/11/12 09:30:05;;;;;;;0.60;0.60;;;;;;;9.60;100.00;98291.81;107568;1263;60208;-68
2023/11/12 09:32:33;;;;;;;1.00;0.70;;;;;;;9.62;100.00;98291.83;107617;1263;72667;-69
2023/11/12 09:35:04;;;;;;;1.00;0.70;;;;;;;9.61;100.00;98299.25;107570;1264;71218;-69
2023/11/12 09:37:31;;;;;;;1.50;0.80;;;;;;;9.59;100.00;98292.14;107555;1264;72735;-69
2023/11/12 09:39:59;;;;;;;1.00;0.70;;;;;;;9.58;100.00;98294.31;107525;1264;62862;-69
2023/11/12 09:42:27;;;;;;;0.80;0.70;;;;;;;9.58;100.00;98294.38;107561;1265;59512;-68
2023/11/12 09:44:55;;;;;;;1.20;0.70;;;;;;;9.60;100.00;98296.83;107578;1264;72102;-69
2023/11/12 09:48:09;;;;;;;1.20;0.80;;;;;;;9.59;100.00;98299.45;107530;1263;70466;-67
2023/11/12 09:50:39;;;;;;;1.80;1.10;;;;;;;9.61;100.00;98303.05;107277;1272;72674;-68
2023/11/12 09:53:07;;;;;;;1.90;0.90;;;;;;;9.61;100.00;98302.77;107431;1264;60507;-68
2023/11/12 09:55:35;;;;;;;2.00;0.90;;;;;;;9.64;100.00;98301.15;107517;1264;59938;-67
2023/11/12 09:58:03;;;;;;;2.80;0.90;;;;;;;9.63;100.00;98303.40;107507;1264;71915;-71
2023/11/12 10:00:34;;;;;;;0.50;0.50;;;;;;;9.60;100.00;98301.40;92400;1264;20002023;-68
2023/11/12 10:03:05;;;;;;;2.20;1.10;;;;;;;9.58;100.00;98301.88;92447;1268;10001889;-67
2023/11/12 10:05:33;;;;;;;2.70;0.90;;;;;;;9.58;100.00;98306.95;107241;1263;72909;-67
2023/11/12 10:08:01;;;;;;;1.30;0.90;;;;;;;9.57;100.00;98307.70;107944;1255;70498;-68
2023/11/12 10:10:33;;;;;;;1.10;0.80;;;;;;;9.56;100.00;98308.08;109256;1254;61944;-68
2023/11/12 10:13:04;;;;;;;;;;;;;;;9.59;100.00;98311.50;108401;1260;60200;-67
2023/11/12 10:15:36;;;;;;;1.40;0.90;;;;;;;9.65;100.00;98312.85;107959;1259;72895;-67
2023/11/12 10:18:04;;;;;;;0.70;0.60;;;;;;;9.71;100.00;98320.80;108002;1254;72655;-67
2023/11/12 10:20:37;;;;;;;0.90;0.80;;;;;;;9.73;100.00;98316.27;107887;1259;72743;-67
2023/11/12 10:23:05;;;;;;;0.80;0.70;;;;;;;9.75;100.00;98321.50;107967;1256;63104;-68
2023/11/12 10:25:47;;;;;;;1.40;0.90;;;;;;;9.77;100.00;98319.01;108046;1254;60083;-67
2023/11/12 10:40:20;;;;;;;1.70;0.90;;;;;;;10.00;98.27;98326.59;98016;1283;10002133;-69
2023/11/12 10:42:53;;;;;;;3.60;1.50;;;;;;;10.15;96.36;98328.42;106981;1266;160114;-67
2023/11/12 10:45:21;;;;;;;3.90;2.70;;;;;;;10.12;96.43;98325.92;107903;1267;72351;-69
2023/11/12 10:47:48;;;;;;;8.80;6.40;;;;;;;10.06;96.62;98331.77;107494;1266;74065;-69
2023/11/12 10:50:16;;;;;;;10.40;6.90;;;;;;;10.06;97.06;98336.54;106968;1266;71932;-68
2023/11/12 10:52:43;;;;;;;13.10;7.90;;;;;;;10.02;97.44;98335.14;107083;1265;61474;-68
2023/11/12 10:55:11;;;;;;;4.40;2.70;;;;;;;9.96;97.72;98343.90;107135;1267;59079;-68
2023/11/12 10:57:42;;;;;;;2.70;1.40;;;;;;;9.93;98.32;98341.61;107014;1267;71993;-69
2023/11/12 11:00:11;;;;;;;1.90;1.10;;;;;;;9.86;97.72;98346.23;107071;1267;71285;-70
2023/11/12 11:02:38;;;;;;;2.30;1.20;;;;;;;9.81;97.41;98353.08;107117;1270;71491;-69
2023/11/12 11:05:06;;;;;;;2.40;1.30;;;;;;;9.78;97.19;98354.31;107369;1258;60844;-68
2023/11/12 11:07:34;;;;;;;2.30;1.30;;;;;;;9.79;97.21;98355.80;107584;1259;60242;-69
2023/11/12 11:10:03;;;;;;;3.20;1.80;;;;;;;9.79;96.85;98353.66;107444;1264;73133;-69
2023/11/12 11:12:31;;;;;;;3.40;1.70;;;;;;;9.78;97.00;98358.48;107505;1259;75023;-69
2023/11/12 11:15:36;;;;;;;3.00;1.50;;;;;;;9.78;97.19;98364.57;107605;1259;72734;-68
2023/11/12 11:18:03;;;;;;;3.40;1.80;;;;;;;9.75;97.11;98364.30;107561;1257;62060;-68
2023/11/12 11:21:02;;;;;;;2.00;1.30;;;;;;;9.69;96.17;98371.02;107570;1263;59469;-68
2023/11/12 11:23:52;;;;;;;3.10;1.80;;;;;;;9.65;96.26;98375.50;107384;1257;72454;-68
2023/11/12 11:26:42;;;;;;;2.80;1.70;;;;;;;9.62;96.57;98378.80;107555;1262;71648;-68
2023/11/12 11:29:12;;;;;;;2.50;1.80;;;;;;;9.59;96.60;98381.11;107570;1259;70887;-68
2023/11/12 11:31:58;;;;;;;3.60;2.20;;;;;;;9.57;96.54;98388.90;107442;1259;60419;-68
2023/11/12 11:34:39;;;;;;;2.50;1.70;;;;;;;9.59;96.87;98391.83;107425;1260;60347;-69
2023/11/12 11:37:08;;;;;;;2.30;1.20;;;;;;;9.56;96.74;98394.50;107477;1259;73465;-69
2023/11/12 11:39:37;;;;;;;3.30;1.10;;;;;;;9.55;96.52;98402.12;107444;1259;73116;-68
2023/11/12 11:42:06;;;;;;;5.00;1.20;;;;;;;9.54;95.69;98408.04;107382;1259;72879;-67
2023/11/12 11:44:37;;;;;;;1.90;1.00;;;;;;;9.56;94.72;98407.98;107397;1260;60464;-68
2023/11/12 11:47:16;;;;;;;1.70;1.10;;;;;;;9.58;93.38;98411.14;107436;1259;59545;-68
2023/11/12 11:49:50;;;;;;;2.00;1.00;;;;;;;9.59;91.55;98417.41;107388;1260;70817;-68
2023/11/12 11:52:25;;;;;;;2.10;1.10;;;;;;;9.59;90.95;98413.40;107433;1260;72741;-69
2023/11/12 11:54:54;;;;;;;1.90;1.20;;;;;;;9.60;90.95;98420.52;107458;1259;72515;-69
2023/11/12 11:57:28;;;;;;;2.20;1.20;;;;;;;9.60;91.38;98423.30;107472;1259;60456;-67
2023/11/12 11:59:57;;;;;;;3.00;1.50;;;;;;;9.60;92.06;98428.57;107375;1259;60035;-69
2023/11/12 12:02:24;;;;;;;1.90;1.20;;;;;;;9.59;92.76;98433.19;107429;1259;73161;-69
2023/11/12 12:04:59;;;;;;;1.60;1.00;;;;;;;9.59;93.47;98439.89;107400;1259;72874;-70
2023/11/12 12:07:29;;;;;;;1.70;0.90;;;;;;;9.58;93.15;98441.95;107430;1260;72725;-68
2023/11/12 12:09:58;;;;;;;2.50;1.40;;;;;;;9.55;93.16;98441.13;107410;1264;60707;-67
2023/11/12 12:12:28;;;;;;;4.90;2.50;;;;;;;9.52;93.73;98445.57;107365;1259;59423;-67
2023/11/12 12:14:56;;;;;;;2.80;1.60;;;;;;;9.45;94.14;98460.38;107419;1259;71975;-68
2023/11/12 12:17:23;;;;;;;2.50;1.40;;;;;;;9.39;93.91;98467.70;107397;1259;72752;-68
2023/11/12 12:19:52;;;;;;;2.90;1.30;;;;;;;9.36;95.18;98464.34;107438;1259;70590;-68
2023/11/12 12:22:23;;;;;;;3.80;1.20;;;;;;;9.37;95.40;98474.56;107441;1260;60393;-67
2023/11/12 12:24:56;;;;;;;3.00;1.70;;;;;;;9.35;94.76;98470.14;107449;1259;59586;-69
2023/11/12 12:27:25;;;;;;;1.80;0.90;;;;;;;9.34;94.51;98479.84;107447;1259;75139;-69
2023/11/12 12:29:54;;;;;;;1.80;1.20;;;;;;;9.34;94.73;98481.97;107352;1259;71582;-69
2023/11/12 12:32:23;;;;;;;2.20;1.10;;;;;;;9.33;94.54;98477.58;107395;1260;73115;-69
2023/11/12 12:34:59;;;;;;;1.50;0.90;;;;;;;9.33;94.18;98480.70;107371;1264;61213;-70
2023/11/12 12:37:30;;;;;;;2.00;1.20;;;;;;;9.33;93.78;98488.77;107443;1259;59037;-69
2023/11/12 12:40:00;;;;;;;1.40;0.90;;;;;;;9.33;94.02;98490.80;107376;1259;73813;-67
2023/11/12 12:42:30;;;;;;;2.60;1.30;;;;;;;9.32;94.14;98490.08;107420;1259;74782;-68
2023/11/12 12:44:58;;;;;;;3.10;1.60;;;;;;;9.32;94.35;98495.77;107596;1259;73051;-69
2023/11/12 12:47:41;;;;;;;4.20;2.70;;;;;;;9.31;94.90;98505.06;107496;1260;59873;-68
2023/11/12 12:50:32;;;;;;;2.40;1.20;;;;;;;9.28;95.51;98503.52;107631;1260;59594;-69
2023/11/12 12:53:13;;;;;;;2.90;1.00;;;;;;;9.25;96.42;98511.43;107545;1259;71720;-71
2023/11/12 12:55:43;;;;;;;2.20;0.90;;;;;;;9.21;97.58;98516.66;107431;1260;75043;-67
2023/11/12 12:58:11;;;;;;;2.20;1.30;;;;;;;9.20;97.72;98525.55;107512;1260;73049;-67
2023/11/12 13:00:42;;;;;;;2.00;1.10;;;;;;;9.20;97.94;98526.84;107605;1259;61724;-69
2023/11/12 13:03:26;;;;;;;2.10;0.90;;;;;;;9.19;97.28;98535.84;107498;1259;59453;-68
2023/11/12 13:05:56;;;;;;;2.90;1.30;;;;;;;9.21;96.68;98533.52;107625;1259;72289;-71
2023/11/12 13:08:24;;;;;;;2.90;1.30;;;;;;;9.23;96.50;98539.05;107798;1256;71451;-67
2023/11/12 13:10:54;;;;;;;3.10;1.40;;;;;;;9.24;96.59;98542.51;107763;1256;72837;-69
2023/11/12 13:13:24;;;;;;;2.00;0.90;;;;;;;9.23;96.36;98544.52;107735;1256;63115;-68
2023/11/12 13:15:51;;;;;;;2.00;1.10;;;;;;;9.23;96.33;98557.86;107865;1256;62411;-69
2023/11/12 13:18:19;;;;;;;2.30;1.30;;;;;;;9.25;96.67;98567.57;107833;1256;72523;-69
2023/11/12 13:20:48;;;;;;;2.10;1.10;;;;;;;9.27;96.90;98573.44;107808;1257;73049;-68
2023/11/12 13:23:17;;;;;;;2.40;1.00;;;;;;;9.28;96.86;98584.50;107845;1257;72910;-68
2023/11/12 13:25:49;;;;;;;1.90;1.20;;;;;;;9.28;96.42;98585.20;107905;1256;61679;-68
2023/11/12 13:28:17;;;;;;;2.20;1.10;;;;;;;9.28;96.26;98589.31;107800;1256;60157;-68
2023/11/12 13:30:47;;;;;;;2.00;1.10;;;;;;;9.23;96.40;98598.68;107869;1256;71536;-69
2023/11/12 13:33:15;;;;;;;2.40;1.10;;;;;;;9.17;96.86;98605.93;107808;1260;73067;-69
2023/11/12 13:35:43;;;;;;;3.30;1.20;;;;;;;9.11;96.98;98605.35;107843;1256;71485;-67
2023/11/12 13:38:10;;;;;;;3.10;1.00;;;;;;;9.04;96.19;98613.15;107896;1256;60761;-69
2023/11/12 13:40:39;;;;;;;2.80;1.00;;;;;;;9.01;96.14;98615.96;107866;1256;59494;-70
2023/11/12 13:43:07;;;;;;;2.10;1.00;;;;;;;8.97;96.19;98624.81;107766;1260;72851;-69
2023/11/12 13:45:37;;;;;;;2.70;1.20;;;;;;;8.93;95.55;98632.13;107774;1256;72160;-69
2023/11/12 13:48:08;;;;;;;1.70;0.80;;;;;;;8.90;95.02;98636.81;107803;1256;72900;-68
2023/11/12 13:50:36;;;;;;;0.90;0.70;;;;;;;8.90;94.80;98635.59;107905;1256;62781;-69
2023/11/12 13:53:09;;;;;;;2.20;0.60;;;;;;;8.90;94.44;98638.57;107944;1256;61069;-67
2023/11/12 13:55:40;;;;;;;1.30;0.60;;;;;;;8.90;92.98;98647.09;107795;1256;72936;-67
2023/11/12 13:58:13;;;;;;;1.20;0.70;;;;;;;8.90;91.86;98637.03;107853;1256;74103;-68
2023/11/12 14:00:41;;;;;;;1.30;0.70;;;;;;;8.92;91.04;98648.34;107736;1258;72794;-69
2023/11/12 14:03:10;;;;;;;0.80;0.60;;;;;;;8.92;90.41;98654.52;107741;1256;60411;-69
2023/11/12 14:05:39;;;;;;;1.10;0.70;;;;;;;8.93;90.21;98656.47;107796;1256;62225;-67
2023/11/12 14:08:07;;;;;;;1.30;0.80;;;;;;;8.94;89.50;98655.66;108035;1256;72056;-68
2023/11/12 14:10:39;;;;;;;1.50;0.80;;;;;;;8.95;88.48;98665.86;107786;1256;71668;-68
2023/11/12 14:13:09;;;;;;;1.10;0.70;;;;;;;8.95;88.33;98663.52;107830;1256;71637;-68
2023/11/12 14:15:38;;;;;;;1.40;0.80;;;;;;;8.96;87.85;98674.52;107831;1256;60390;-68
2023/11/12 14:18:07;;;;;;;1.10;0.60;;;;;;;8.97;87.39;98676.25;107776;1256;59698;-68
2023/11/12 14:20:34;;;;;;;1.60;0.80;;;;;;;9.01;87.10;98677.12;107817;1260;75258;-69
2023/11/12 14:23:02;;;;;;;1.20;0.70;;;;;;;8.98;86.32;98690.73;107761;1255;71425;-68
2023/11/12 14:25:30;;;;;;;1.40;0.80;;;;;;;8.97;85.99;98686.00;107813;1256;71360;-68
2023/11/12 14:27:59;;;;;;;1.20;0.70;;;;;;;8.98;85.95;98693.08;107769;1256;60457;-68
2023/11/12 14:30:27;;;;;;;4.30;1.00;;;;;;;8.97;85.06;98691.88;107865;1256;59275;-66
2023/11/12 14:32:54;;;;;;;1.30;0.70;;;;;;;8.97;84.60;98697.52;107822;1257;73105;-67
2023/11/12 14:35:25;;;;;;;1.60;0.70;;;;;;;8.98;84.39;98707.67;107799;1256;73038;-67
2023/11/12 14:37:53;;;;;;;2.00;0.80;;;;;;;8.96;84.23;98709.73;107817;1256;72800;-68
2023/11/12 14:40:21;;;;;;;1.90;0.80;;;;;;;8.96;84.32;98711.48;107815;1258;60968;-69
2023/11/12 14:42:49;;;;;;;1.10;0.60;;;;;;;8.94;84.06;98717.48;107917;1257;59525;-67
2023/11/12 14:45:18;;;;;;;1.40;0.80;;;;;;;8.93;84.06;98720.84;107725;1256;73187;-70
2023/11/12 14:47:57;;;;;;;1.50;0.80;;;;;;;8.94;83.97;98726.74;107840;1256;74751;-68
2023/11/12 14:50:28;;;;;;;1.70;0.80;;;;;;;8.96;83.81;98737.27;107796;1256;71894;-67
2023/11/12 14:52:57;;;;;;;2.50;0.80;;;;;;;8.98;83.78;98735.15;108131;1256;60812;-68
2023/11/12 14:55:27;;;;;;;1.30;0.80;;;;;;;8.99;84.01;98737.42;108104;1256;60444;-67
2023/11/12 14:57:55;;;;;;;1.80;1.00;;;;;;;8.99;84.27;98744.14;107869;1256;74063;-68
2023/11/12 15:00:27;;;;;;;3.00;1.20;;;;;;;8.97;84.47;98747.95;107917;1256;72588;-68
2023/11/12 15:02:57;;;;;;;2.00;0.90;;;;;;;8.97;84.88;98765.00;108041;1256;71453;-68
2023/11/12 15:05:28;;;;;;;1.90;1.10;;;;;;;8.98;84.85;98769.28;107945;1256;60525;-68
2023/11/12 15:07:56;;;;;;;3.00;1.60;;;;;;;8.96;85.02;98776.61;107798;1256;62231;-67
2023/11/12 15:10:24;;;;;;;2.60;1.50;;;;;;;8.96;85.59;98782.54;107850;1256;73985;-68
2023/11/12 15:12:51;;;;;;;2.00;1.00;;;;;;;8.94;85.93;98793.52;107935;1256;72856;-68
2023/11/12 15:15:20;;;;;;;1.80;1.20;;;;;;;8.93;86.34;98793.38;107894;1260;72420;-68
2023/11/12 15:17:48;;;;;;;1.90;0.90;;;;;;;8.93;86.86;98799.56;107844;1257;60521;-69
2023/11/12 15:20:16;;;;;;;1.90;0.90;;;;;;;8.90;87.10;98805.71;107669;1256;60423;-67
2023/11/12 15:22:49;;;;;;;2.70;1.20;;;;;;;8.89;87.24;98811.07;107817;1256;74350;-67
2023/11/12 15:25:21;;;;;;;2.00;1.00;;;;;;;8.87;87.50;98821.36;107805;1256;71415;-67
2023/11/12 15:28:10;;;;;;;1.80;1.00;;;;;;;8.84;87.64;98821.92;107818;1256;72185;-67
2023/11/12 15:31:11;;;;;;;2.40;1.00;;;;;;;8.85;87.25;98827.58;108239;1257;61162;-68
2023/11/12 15:33:49;;;;;;;1.60;1.00;;;;;;;8.86;86.52;98827.45;107935;1257;60942;-68
2023/11/12 15:36:33;;;;;;;2.00;1.00;;;;;;;8.88;85.35;98829.29;107694;1256;75580;-66
2023/11/12 15:39:34;;;;;;;2.10;1.30;;;;;;;8.88;84.55;98835.10;107801;1256;74982;-67
2023/11/12 15:42:35;;;;;;;4.00;1.30;;;;;;;8.89;83.71;98842.16;107895;1257;72680;-68
2023/11/12 15:45:36;;;;;;;1.90;1.10;;;;;;;8.93;82.93;98843.59;107815;1257;62074;-67
2023/11/12 15:48:37;;;;;;;2.60;1.30;;;;;;;8.95;82.54;98845.98;107907;1256;60291;-66
2023/11/12 15:51:38;;;;;;;2.30;1.00;;;;;;;8.96;82.28;98857.56;107798;1256;72263;-66
2023/11/12 15:54:22;;;;;;;1.60;1.00;;;;;;;8.95;81.53;98866.90;107838;1255;71554;-68
2023/11/12 15:56:54;;;;;;;1.70;0.90;;;;;;;8.96;81.31;98869.19;107868;1257;73598;-68
2023/11/12 15:59:28;;;;;;;1.50;1.00;;;;;;;8.97;80.81;98875.86;107867;1256;61558;-68
2023/11/12 16:02:09;;;;;;;2.10;1.00;;;;;;;8.97;81.17;98881.41;107884;1256;59392;-67
2023/11/12 16:04:50;;;;;;;2.20;1.10;;;;;;;8.94;81.74;98887.73;107767;1256;73914;-66
2023/11/12 16:07:40;;;;;;;3.40;1.20;;;;;;;8.91;82.01;98891.92;107887;1256;71229;-68
2023/11/12 16:10:31;;;;;;;2.60;1.20;;;;;;;8.89;82.56;98901.02;107794;1256;74813;-68
2023/11/12 16:13:16;;;;;;;4.40;1.30;;;;;;;8.91;82.79;98903.48;107637;1256;62560;-68
2023/11/12 16:16:17;;;;;;;3.00;1.20;;;;;;;8.91;83.16;98905.13;107699;1256;59183;-68
2023/11/12 16:19:06;;;;;;;3.30;1.30;;;;;;;8.92;83.19;98911.04;107917;1257;74157;-68
2023/11/12 16:21:51;;;;;;;2.10;1.20;;;;;;;8.91;83.02;98913.60;107807;1257;72682;-66
2023/11/12 16:24:52;;;;;;;2.50;1.30;;;;;;;8.92;82.95;98912.63;107773;1257;72698;-67
2023/11/12 16:27:40;;;;;;;2.40;1.20;;;;;;;8.93;82.62;98916.02;107766;1257;63705;-67
2023/11/12 16:30:26;;;;;;;2.60;1.30;;;;;;;8.94;82.62;98919.89;107842;1258;61088;-69
2023/11/12 16:33:14;;;;;;;3.90;1.90;;;;;;;8.93;82.70;98921.45;107862;1257;72914;-66
2023/11/12 16:35:51;;;;;;;3.10;1.60;;;;;;;8.92;82.59;98918.79;107685;1257;73846;-67
2023/11/12 16:38:34;;;;;;;2.70;1.40;;;;;;;8.92;82.75;98930.52;107933;1257;73786;-67
2023/11/12 16:41:22;;;;;;;2.90;1.70;;;;;;;8.91;82.82;98933.09;107714;1257;61855;-67
2023/11/12 16:44:07;;;;;;;2.50;1.50;;;;;;;8.89;83.40;98940.42;107874;1257;60476;-65
2023/11/12 16:46:40;;;;;;;2.80;1.60;;;;;;;8.87;83.98;98946.34;100235;1260;10002583;-67
2023/11/12 16:49:26;;;;;;;3.20;1.90;;;;;;;8.86;84.45;98952.23;107700;1256;73006;-67
2023/11/12 16:52:07;;;;;;;3.80;2.40;;;;;;;8.86;84.79;98951.67;107639;1256;61722;-67
2023/11/12 16:54:54;;;;;;;5.10;2.70;;;;;;;8.85;85.31;98963.34;107579;1257;63226;-68
2023/11/12 16:58:08;;;;;;;4.10;2.50;;;;;;;8.84;85.54;98967.67;107586;1258;72424;-66
2023/11/12 17:00:37;;;;;;;5.40;2.90;;;;;;;8.84;85.55;98982.70;107602;1256;70686;-67
2023/11/12 17:03:06;;;;;;;5.70;3.10;;;;;;;8.82;85.72;98984.05;107690;1256;72709;-66
2023/11/12 17:05:34;;;;;;;5.00;3.40;;;;;;;8.83;85.71;98991.23;108616;1256;61813;-68
2023/11/12 17:08:04;;;;;;;5.50;4.10;;;;;;;8.85;85.39;98992.27;107583;1256;60307;-67
2023/11/12 17:10:32;;;;;;;8.70;5.40;;;;;;;8.87;85.27;98993.56;107642;1257;72243;-68
2023/11/12 17:13:00;;;;;;;7.40;4.60;;;;;;;8.91;84.64;98995.62;107607;1257;72184;-68
2023/11/12 17:15:29;;;;;;;8.10;5.10;;;;;;;8.93;84.51;99007.24;107663;1256;71626;-65
2023/11/12 17:17:56;;;;;;;11.90;6.10;;;;;;;8.94;84.07;99005.42;107728;1256;61809;-67
2023/11/12 17:20:24;;;;;;;8.00;5.10;;;;;;;8.96;83.85;99006.75;107678;1255;59872;-67
2023/11/12 17:22:52;;;;;;;9.70;5.80;;;;;;;8.96;83.91;99013.20;108944;1255;73227;-66
2023/11/12 17:25:20;;;;;;;8.00;5.80;;;;;;;8.98;83.81;99017.52;109013;1255;72889;-66
2023/11/12 17:27:48;;;;;;;9.80;6.10;;;;;;;9.01;83.65;99018.71;107821;1260;74891;-69
2023/11/12 17:30:16;;;;;;;8.00;5.90;;;;;;;9.03;83.45;99024.23;107748;1255;61697;-68
2023/11/12 17:32:44;;;;;;;9.60;5.90;;;;;;;9.06;83.15;99028.30;107720;1256;60352;-65
2023/11/12 17:35:14;;;;;;;8.60;6.10;;;;;;;8.99;83.20;99031.52;107672;1260;74121;-65
2023/11/12 17:37:43;;;;;;;9.60;6.80;;;;;;;8.91;83.31;99044.96;107751;1256;72873;-67
2023/11/12 17:40:11;;;;;;;9.50;6.50;;;;;;;8.92;83.41;99036.18;107698;1256;73213;-69
2023/11/12 17:42:39;;;;;;;8.40;5.70;;;;;;;8.91;83.48;99048.38;107822;1260;60485;-69
2023/11/12 17:45:10;;;;;;;8.20;6.40;;;;;;;8.92;83.16;99049.39;107757;1256;60451;-67
2023/11/12 17:47:39;;;;;;;9.40;6.40;;;;;;;8.86;83.07;99046.66;107801;1256;74543;-68
2023/11/12 17:50:07;;;;;;;12.70;10.40;;;;;;;8.45;85.02;99058.98;107782;1256;75409;-67
2023/11/12 17:52:35;;;;;;;12.40;9.20;;;;;;;8.36;86.70;99069.04;107790;1256;70582;-68
2023/11/12 17:55:03;;;;;;;8.90;6.70;;;;;;;8.35;87.42;99067.23;107784;1256;61975;-66
2023/11/12 17:57:30;;;;;;;9.70;7.40;;;;;;;8.48;87.22;99068.16;107620;1255;61019;-66
2023/11/12 18:00:01;;;;;;;9.40;7.30;;;;;;;8.78;85.03;99060.45;107810;1256;73165;-66
2023/11/12 18:02:38;;;;;;;9.80;7.20;;;;;;;8.84;83.45;99071.19;107767;1256;72847;-66
2023/11/12 18:05:06;;;;;;;10.30;7.70;;;;;;;8.89;82.83;99079.40;107769;1256;72747;-67
2023/11/12 18:07:34;;;;;;;9.10;6.60;;;;;;;8.99;81.81;99080.68;107693;1256;62330;-67
2023/11/12 18:10:02;;;;;;;9.30;6.90;;;;;;;9.03;81.25;99085.11;107697;1256;62308;-65
2023/11/12 18:12:31;;;;;;;10.20;7.60;;;;;;;9.05;80.97;99090.05;107665;1260;74483;-66
2023/11/12 18:14:59;;;;;;;10.10;7.80;;;;;;;8.99;80.86;99095.05;107786;1256;73049;-66
2023/11/12 18:17:27;;;;;;;10.50;8.40;;;;;;;9.00;81.11;99101.40;107786;1256;71585;-67
2023/11/12 18:19:55;;;;;;;10.20;7.50;;;;;;;8.99;81.10;99105.77;107748;1255;64140;-67
2023/11/12 18:22:25;;;;;;;10.70;7.50;;;;;;;8.98;81.30;99112.15;107825;1256;60411;-67
2023/11/12 18:24:53;;;;;;;10.20;7.90;;;;;;;8.98;81.43;99116.85;107805;1256;76278;-66
2023/11/12 18:27:21;;;;;;;10.50;7.80;;;;;;;8.95;81.68;99112.25;107776;1256;74500;-67
2023/11/12 18:29:49;;;;;;;9.80;7.60;;;;;;;8.92;81.73;99120.81;107737;1255;72034;-67
2023/11/12 18:32:18;;;;;;;13.70;8.30;;;;;;;8.92;81.86;99130.34;107756;1256;63946;-66
2023/11/12 18:34:46;;;;;;;10.40;7.80;;;;;;;8.93;81.88;99130.48;107764;1256;60517;-67
2023/11/12 18:37:14;;;;;;;10.30;7.80;;;;;;;9.00;81.64;99130.48;107570;1255;72669;-67
2023/11/12 18:39:41;;;;;;;13.80;8.10;;;;;;;9.03;81.34;99138.43;107680;1256;71626;-67
2023/11/12 18:42:09;;;;;;;11.00;8.00;;;;;;;9.05;80.92;99143.69;107822;1256;71484;-66
2023/11/12 18:44:37;;;;;;;9.90;7.20;;;;;;;9.04;80.14;99145.73;107706;1256;61871;-65
2023/11/12 18:47:05;;;;;;;11.00;8.00;;;;;;;9.05;79.60;99155.24;107712;1255;60467;-65
2023/11/12 18:49:33;;;;;;;11.30;7.80;;;;;;;9.06;79.45;99151.89;107775;1255;72196;-68
2023/11/12 18:52:01;;;;;;;10.10;7.70;;;;;;;9.06;79.34;99161.64;107722;1256;72757;-67
2023/11/12 18:54:30;;;;;;;11.40;7.90;;;;;;;9.08;79.34;99170.34;107689;1257;72768;-68
2023/11/12 18:56:58;;;;;;;10.20;7.40;;;;;;;9.10;79.36;99165.54;107736;1256;60497;-67
2023/11/12 18:59:25;;;;;;;10.60;7.50;;;;;;;9.11;79.38;99177.95;107700;1255;60530;-65
2023/11/12 19:01:53;;;;;;;10.30;7.70;;;;;;;9.09;79.28;99177.80;107761;1255;72941;-67
2023/11/12 19:04:21;;;;;;;10.60;7.60;;;;;;;9.09;79.04;99184.67;107821;1255;72165;-65
2023/11/12 19:06:49;;;;;;;10.80;7.70;;;;;;;9.10;79.10;99184.39;107793;1256;71052;-68
2023/11/12 19:09:17;;;;;;;10.90;7.70;;;;;;;9.11;78.92;99190.45;107769;1256;61560;-67
2023/11/12 19:11:45;;;;;;;9.80;7.30;;;;;;;9.10;78.86;99195.25;107740;1256;60371;-66
2023/11/12 19:14:12;;;;;;;10.70;7.50;;;;;;;9.10;78.82;99198.51;107718;1255;76114;-67
2023/11/12 19:16:45;;;;;;;8.90;6.90;;;;;;;9.08;79.03;99201.25;108928;1256;74837;-65
2023/11/12 19:19:12;;;;;;;9.60;6.70;;;;;;;9.07;79.00;99205.20;108240;1256;72587;-68
2023/11/12 19:21:40;;;;;;;9.70;7.20;;;;;;;9.07;79.19;99213.72;107734;1256;61959;-68
2023/11/12 19:24:09;;;;;;;10.40;7.00;;;;;;;9.09;79.56;99203.10;107931;1256;60451;-68
2023/11/12 19:26:38;;;;;;;11.20;7.40;;;;;;;9.10;79.75;99213.80;107933;1256;76167;-68
2023/11/12 19:29:06;;;;;;;9.40;7.40;;;;;;;9.10;80.16;99216.46;107739;1255;71513;-66
2023/11/12 19:31:41;;;;;;;10.70;8.00;;;;;;;9.07;80.41;99221.60;107758;1255;72832;-67
2023/11/12 19:34:10;;;;;;;11.10;8.10;;;;;;;9.06;80.82;99221.35;107778;1255;61306;-67
2023/11/12 19:36:39;;;;;;;9.70;7.50;;;;;;;9.05;81.10;99223.64;107926;1260;62187;-68
2023/11/12 19:39:12;;;;;;;10.10;7.30;;;;;;;9.01;80.97;99235.87;107921;1256;72562;-65
2023/11/12 19:41:41;;;;;;;10.10;6.90;;;;;;;9.00;80.56;99236.46;107925;1256;71959;-69
2023/11/12 19:44:09;;;;;;;10.30;6.90;;;;;;;9.01;80.34;99236.83;107990;1255;72767;-67
2023/11/12 19:46:46;;;;;;;11.00;7.70;;;;;;;9.03;80.25;99238.95;107944;1256;64072;-68
2023/11/12 19:49:14;;;;;;;8.60;6.30;;;;;;;9.03;80.00;99251.84;108006;1256;60362;-66
2023/11/12 19:51:42;;;;;;;11.30;7.10;;;;;;;9.05;80.06;99257.05;107985;1256;74132;-69
2023/11/12 19:54:11;;;;;;;8.70;5.90;;;;;;;9.07;80.11;99257.51;107935;1256;72919;-68
2023/11/12 19:56:39;;;;;;;7.10;5.60;;;;;;;9.08;79.78;99266.35;107954;1256;71130;-67
2023/11/12 19:59:07;;;;;;;7.70;6.00;;;;;;;9.08;79.14;99261.02;107887;1256;60664;-67
2023/11/12 20:01:35;;;;;;;7.10;5.50;;;;;;;9.10;79.05;99271.60;107914;1256;61925;-67
2023/11/12 20:04:03;;;;;;;9.50;5.50;;;;;;;9.10;79.01;99277.09;107946;1256;72654;-66
2023/11/12 20:06:34;;;;;;;7.70;5.40;;;;;;;9.09;78.82;99286.63;107987;1256;71434;-66
2023/11/12 20:09:02;;;;;;;7.10;5.60;;;;;;;9.09;78.84;99285.25;107878;1256;71130;-65
2023/11/12 20:11:29;;;;;;;7.20;5.30;;;;;;;9.07;78.59;99284.45;107884;1260;60581;-68
2023/11/12 20:14:02;;;;;;;7.40;5.40;;;;;;;9.08;78.46;99293.46;107765;1255;62261;-67
2023/11/12 20:16:30;;;;;;;7.90;5.90;;;;;;;9.05;78.29;99294.23;107928;1255;73961;-67
2023/11/12 20:18:57;;;;;;;7.30;5.10;;;;;;;9.07;78.50;99302.99;107934;1256;73025;-67
2023/11/12 20:21:25;;;;;;;7.50;5.10;;;;;;;9.08;78.44;99301.07;107962;1260;74223;-68
2023/11/12 20:23:54;;;;;;;7.70;5.50;;;;;;;9.08;78.58;99301.18;107941;1256;61652;-67
2023/11/12 20:26:22;;;;;;;10.60;6.20;;;;;;;9.07;78.69;99310.46;107942;1256;60314;-68
2023/11/12 20:28:49;;;;;;;8.70;5.90;;;;;;;9.07;78.96;99310.67;107949;1256;74095;-68
2023/11/12 20:31:17;;;;;;;8.60;6.20;;;;;;;9.04;79.38;99314.80;107955;1256;72111;-68
2023/11/12 20:33:46;;;;;;;9.10;6.50;;;;;;;9.02;79.77;99316.08;107984;1256;73259;-68
2023/11/12 20:36:14;;;;;;;8.30;6.30;;;;;;;9.01;80.38;99319.18;107964;1260;62837;-67
2023/11/12 20:38:45;;;;;;;8.40;6.20;;;;;;;8.99;80.88;99336.02;107878;1260;60027;-66
2023/11/12 20:41:12;;;;;;;8.40;6.10;;;;;;;8.97;80.31;99341.05;107945;1255;72425;-67
2023/11/12 20:43:40;;;;;;;7.70;5.60;;;;;;;8.97;79.82;99354.30;107920;1256;73079;-66
2023/11/12 20:46:08;;;;;;;7.00;5.50;;;;;;;8.99;79.09;99351.90;107984;1260;72738;-66
2023/11/12 20:48:37;;;;;;;7.60;5.70;;;;;;;9.02;78.56;99347.83;107975;1256;61786;-66
2023/11/12 20:51:05;;;;;;;8.00;5.50;;;;;;;9.02;77.66;99358.70;108019;1256;60290;-67
2023/11/12 20:53:33;;;;;;;6.40;4.80;;;;;;;9.04;76.83;99363.05;107989;1256;71948;-65